Lihue, HI (96766)

6:15 PM HST on February 05, 2016 (GMT -1000)
Uluko | | Change Station
CLOSE
Current Station
Personal Weather Station
Location: Lihue, HI
Elevation: 187 ft
Nearby Weather Stations

Elev 187 ft 21.96 °N, 159.37 °W | Updated 2 seconds ago

Clear
Clear
76.8 °F
Feels Like 78 °F
N
2.0
Wind Variable Wind from NNE
Gusts 4.0 mph

Today
High -- | Low -- °F
--% Chance of Precip.
Yesterday
High -- | Low -- °F
Precip. -- in
Pressure 29.97 in
Visibility 10.0 miles
Clouds Clear
Heat Index 78 °F
Dew Point 68 °F
Humidity 73%
Rainfall 0.00 in
Snow Depth Not available.
7:14 AM 6:29 PM
Waning Crescent, 7% visible
METAR PHLI 060353Z COR 05008KT 10SM CLR 25/18 A2998 RMK AO2 SLP148 T02500178
Pressure 29.97 in
Visibility 10.0 miles
Clouds Clear
Heat Index 78 °F
Dew Point 68 °F
Humidity 73%
Rainfall 0.00 in
Snow Depth Not available.
7:14 AM 6:29 PM
Waning Crescent, 7% visible
METAR PHLI 060353Z COR 05008KT 10SM CLR 25/18 A2998 RMK AO2 SLP148 T02500178

10-Day Weather Forecast

Almanac

Astronomy

Feb. 05, 2016 Rise Set
Actual Time
Civil Twilight
Nautical Twilight
Astronomical Twilight
Moon
Length of Visible Light
Length of Day
Tomorrow will be .
, % of the Moon is Illuminated

Today's Extremes

State Highs State Lows

Community

WunderPhotos

Upload Photos

1,890,917 photos uploaded!

WunderBlog® & News

Nearby

Air Quality

  Air Quality AQ Index Pollutant
Not available.

Snow Depth

Station Depth Elevation

Earthquake Activity

City Distance Mag. Time & Date
Minimum magnitude displayed is 2.5.

Coastal Water Temperatures

Place Temperature

Stations

Nearby Weather Stations

Station Location Temp. Windchill Dew Point Humidity Wind Precip. Elev Updated Type
                   

Watches & Warnings

There are currently no watches in effect.